Overview Statistics Trail Chart Weather Telemetry Raw packets
 

This is the latest recevied weather packets stored in our database for station/object EA7URS-13. If no packets are shown the sender has not sent any weather packets the latest 10 day(s).

<< 96 97 98 99 100 101 102 >>
Time Temp. Humidity Pressure Rain* Wind** Luminosity Snow
1787942885 27.78° C 40% 1010.9 hPa 0 mm - 10 W/m² -
1787942584 27.78° C 40% 1011 hPa 0 mm - 16 W/m² -
1787942283 27.78° C 40% 1011 hPa 0 mm - 16 W/m² -
1787941982 27.78° C 40% 1010.5 hPa 0 mm - 22 W/m² -
1787941681 27.78° C 40% 1010.5 hPa 0 mm - 22 W/m² -
1787941380 28.33° C 42% 1010.8 hPa 0 mm - 28 W/m² -
1787941079 28.33° C 42% 1010.8 hPa 0 mm - 28 W/m² -
1787940777 28.33° C 40% 1010.7 hPa 0 mm - 33 W/m² -
1787940476 28.33° C 40% 1010.7 hPa 0 mm - 33 W/m² -
1787940175 30° C 32% 1010.7 hPa 0 mm - 37 W/m² -
1787939874 30° C 32% 1010.7 hPa 0 mm - 37 W/m² -
1787939573 30.56° C 22% 1010.6 hPa 0 mm - 39 W/m² -
1787939272 30.56° C 22% 1010.6 hPa 0 mm - 39 W/m² -
1787938971 31.11° C 22% 1011 hPa 0 mm - 48 W/m² -
1787938670 31.11° C 22% 1011 hPa 0 mm - 48 W/m² -
1787938369 31.67° C 21% 1010.9 hPa 0 mm - 54 W/m² -
1787938068 31.67° C 21% 1010.9 hPa 0 mm - 54 W/m² -
1787937767 31.67° C 22% 1011 hPa 0 mm - 91 W/m² -
1787937466 31.67° C 22% 1011 hPa 0 mm - 91 W/m² -
1787937165 31.11° C 22% 1011.1 hPa 0 mm - 120 W/m² -
1787936864 31.11° C 22% 1011.1 hPa 0 mm - 120 W/m² -
1787936562 31.67° C 22% 1010.9 hPa 0 mm - 145 W/m² -
1787936261 31.67° C 22% 1010.9 hPa 0 mm - 145 W/m² -
1787935960 31.11° C 22% 1011.2 hPa 0 mm - 180 W/m² -
1787935659 31.11° C 22% 1011.2 hPa 0 mm - 180 W/m² -

* Rain latest hour (hover to see other rain measurements)
** Current wind speed in m/s (hover to see current wind gust speed)